Washington Grove, Maryland
Current Conditions -  °F | °C
As of 4:55 PM on Saturday 25 Oct 2014 (Local Time) from KGAI Reporting Station
Clear Clear  
Wind Chill: 70°   Ceiling: Unl
Heat Index: 70°   Visibility: 10mi
Dew Point: 43°   Wind: 7mph
Humidity: 38%   Direction: 240°WSW
Pressure: 29.8"   Gusts: NA
Location:  39.14°N, 77.18°W
Report Text: KGAI 252055Z 24006KT 10SM CLR 21/06 A2980 RMK AO1 57027
Loading
Personal Weather Stations






























Interactive Weather Map
Tropical Storm Tracking
New forecast layout! Learn more

10-Day Weather Forecast

Advertisements
Track Severe Weather on mobile